sensor_id;sensor_type;location;lat;lon;timestamp;temperature;humidity
3208;DHT22;1616;52.394;9.756;2023-04-25T00:01:06;9.00;1.00
3208;DHT22;1616;52.394;9.756;2023-04-25T00:03:32;9.00;1.00
3208;DHT22;1616;52.394;9.756;2023-04-25T00:06:00;8.90;1.00
3208;DHT22;1616;52.394;9.756;2023-04-25T00:08:29;8.90;1.00
3208;DHT22;1616;52.394;9.756;2023-04-25T00:10:56;8.90;1.00
3208;DHT22;1616;52.394;9.756;2023-04-25T00:13:22;8.90;1.00
3208;DHT22;1616;52.394;9.756;2023-04-25T00:15:48;8.80;1.00
3208;DHT22;1616;52.394;9.756;2023-04-25T00:18:14;8.80;1.00
3208;DHT22;1616;52.394;9.756;2023-04-25T00:20:40;8.80;1.00
3208;DHT22;1616;52.394;9.756;2023-04-25T00:23:09;8.80;1.00
3208;DHT22;1616;52.394;9.756;2023-04-25T00:25:36;8.80;1.00
3208;DHT22;1616;52.394;9.756;2023-04-25T00:28:01;8.80;1.00
3208;DHT22;1616;52.394;9.756;2023-04-25T00:30:27;8.80;1.00
3208;DHT22;1616;52.394;9.756;2023-04-25T00:32:52;8.90;1.00
3208;DHT22;1616;52.394;9.756;2023-04-25T00:35:18;8.90;1.00
3208;DHT22;1616;52.394;9.756;2023-04-25T00:37:44;8.90;1.00
3208;DHT22;1616;52.394;9.756;2023-04-25T00:40:10;8.90;1.00
3208;DHT22;1616;52.394;9.756;2023-04-25T00:42:36;9.00;1.00
3208;DHT22;1616;52.394;9.756;2023-04-25T00:45:05;8.90;1.00
3208;DHT22;1616;52.394;9.756;2023-04-25T00:47:31;8.90;1.00
3208;DHT22;1616;52.394;9.756;2023-04-25T00:49:57;8.90;1.00
3208;DHT22;1616;52.394;9.756;2023-04-25T00:52:23;8.90;1.00
3208;DHT22;1616;52.394;9.756;2023-04-25T00:54:48;8.90;1.00
3208;DHT22;1616;52.394;9.756;2023-04-25T00:57:14;8.90;1.00
3208;DHT22;1616;52.394;9.756;2023-04-25T00:59:43;8.90;1.00
3208;DHT22;1616;52.394;9.756;2023-04-25T01:02:10;8.90;1.00
3208;DHT22;1616;52.394;9.756;2023-04-25T01:04:36;8.90;1.00
3208;DHT22;1616;52.394;9.756;2023-04-25T01:07:02;8.90;1.00
3208;DHT22;1616;52.394;9.756;2023-04-25T01:09:30;8.90;1.00
3208;DHT22;1616;52.394;9.756;2023-04-25T01:11:56;8.90;1.00
3208;DHT22;1616;52.394;9.756;2023-04-25T01:14:23;8.90;1.00
3208;DHT22;1616;52.394;9.756;2023-04-25T01:16:48;8.90;1.00
3208;DHT22;1616;52.394;9.756;2023-04-25T01:19:16;8.90;1.00
3208;DHT22;1616;52.394;9.756;2023-04-25T01:21:43;8.90;1.00
3208;DHT22;1616;52.394;9.756;2023-04-25T01:24:09;8.90;1.00
3208;DHT22;1616;52.394;9.756;2023-04-25T01:26:35;8.90;1.00
3208;DHT22;1616;52.394;9.756;2023-04-25T01:29:03;8.90;1.00
3208;DHT22;1616;52.394;9.756;2023-04-25T01:31:29;8.90;1.00
3208;DHT22;1616;52.394;9.756;2023-04-25T01:33:55;8.90;1.00
3208;DHT22;1616;52.394;9.756;2023-04-25T01:36:22;8.90;1.00
3208;DHT22;1616;52.394;9.756;2023-04-25T01:38:47;8.90;1.00
3208;DHT22;1616;52.394;9.756;2023-04-25T01:41:14;8.90;1.00
3208;DHT22;1616;52.394;9.756;2023-04-25T01:43:40;8.90;1.00
3208;DHT22;1616;52.394;9.756;2023-04-25T01:46:06;8.80;1.00
3208;DHT22;1616;52.394;9.756;2023-04-25T01:48:31;8.80;1.00
3208;DHT22;1616;52.394;9.756;2023-04-25T01:50:58;8.80;1.00
3208;DHT22;1616;52.394;9.756;2023-04-25T01:53:23;8.90;1.00
3208;DHT22;1616;52.394;9.756;2023-04-25T01:55:50;9.80;1.00
3208;DHT22;1616;52.394;9.756;2023-04-25T01:58:15;8.80;1.00
3208;DHT22;1616;52.394;9.756;2023-04-25T02:00:41;8.80;1.00
3208;DHT22;1616;52.394;9.756;2023-04-25T02:03:07;8.80;1.00
3208;DHT22;1616;52.394;9.756;2023-04-25T02:05:40;8.80;1.00
3208;DHT22;1616;52.394;9.756;2023-04-25T02:08:06;8.70;1.00
3208;DHT22;1616;52.394;9.756;2023-04-25T02:10:33;8.60;1.00
3208;DHT22;1616;52.394;9.756;2023-04-25T02:12:59;8.50;1.00
3208;DHT22;1616;52.394;9.756;2023-04-25T02:15:25;8.40;1.00
3208;DHT22;1616;52.394;9.756;2023-04-25T02:17:50;8.20;1.00
3208;DHT22;1616;52.394;9.756;2023-04-25T02:20:20;8.10;1.00
3208;DHT22;1616;52.394;9.756;2023-04-25T02:22:46;8.00;1.00
3208;DHT22;1616;52.394;9.756;2023-04-25T02:25:11;7.80;1.00
3208;DHT22;1616;52.394;9.756;2023-04-25T02:27:37;7.90;1.00
3208;DHT22;1616;52.394;9.756;2023-04-25T02:30:04;7.80;1.00
3208;DHT22;1616;52.394;9.756;2023-04-25T02:32:30;7.80;1.00
3208;DHT22;1616;52.394;9.756;2023-04-25T02:34:56;7.70;1.00
3208;DHT22;1616;52.394;9.756;2023-04-25T02:37:24;7.70;1.00
3208;DHT22;1616;52.394;9.756;2023-04-25T02:39:50;7.70;1.00
3208;DHT22;1616;52.394;9.756;2023-04-25T02:42:15;7.70;1.00
3208;DHT22;1616;52.394;9.756;2023-04-25T02:44:41;7.70;1.00
3208;DHT22;1616;52.394;9.756;2023-04-25T02:47:07;7.70;1.00
3208;DHT22;1616;52.394;9.756;2023-04-25T02:49:32;7.70;1.00
3208;DHT22;1616;52.394;9.756;2023-04-25T02:51:58;7.70;1.00
3208;DHT22;1616;52.394;9.756;2023-04-25T02:54:23;7.60;1.00
3208;DHT22;1616;52.394;9.756;2023-04-25T02:56:49;7.60;1.00
3208;DHT22;1616;52.394;9.756;2023-04-25T02:59:15;7.60;1.00
3208;DHT22;1616;52.394;9.756;2023-04-25T03:01:41;7.60;1.00
3208;DHT22;1616;52.394;9.756;2023-04-25T03:04:06;7.60;1.00
3208;DHT22;1616;52.394;9.756;2023-04-25T03:06:32;7.70;1.00
3208;DHT22;1616;52.394;9.756;2023-04-25T03:08:57;7.60;1.00
3208;DHT22;1616;52.394;9.756;2023-04-25T03:11:25;7.60;1.00
3208;DHT22;1616;52.394;9.756;2023-04-25T03:13:51;7.60;1.00
3208;DHT22;1616;52.394;9.756;2023-04-25T03:16:16;7.60;1.00
3208;DHT22;1616;52.394;9.756;2023-04-25T03:18:42;7.60;1.00
3208;DHT22;1616;52.394;9.756;2023-04-25T03:21:07;7.50;1.00
3208;DHT22;1616;52.394;9.756;2023-04-25T03:23:33;7.50;1.00
3208;DHT22;1616;52.394;9.756;2023-04-25T03:25:59;7.50;1.00
3208;DHT22;1616;52.394;9.756;2023-04-25T03:28:25;7.50;1.00
3208;DHT22;1616;52.394;9.756;2023-04-25T03:30:51;7.50;1.00
3208;DHT22;1616;52.394;9.756;2023-04-25T03:33:17;7.50;1.00
3208;DHT22;1616;52.394;9.756;2023-04-25T03:35:42;7.50;1.00
3208;DHT22;1616;52.394;9.756;2023-04-25T03:38:08;7.50;1.00
3208;DHT22;1616;52.394;9.756;2023-04-25T03:40:34;7.50;1.00
3208;DHT22;1616;52.394;9.756;2023-04-25T03:43:00;7.50;1.00
3208;DHT22;1616;52.394;9.756;2023-04-25T03:45:25;7.50;1.00
3208;DHT22;1616;52.394;9.756;2023-04-25T03:47:51;7.60;1.00
3208;DHT22;1616;52.394;9.756;2023-04-25T03:50:16;7.60;1.00
3208;DHT22;1616;52.394;9.756;2023-04-25T03:52:43;7.60;1.00
3208;DHT22;1616;52.394;9.756;2023-04-25T03:55:09;7.60;1.00
3208;DHT22;1616;52.394;9.756;2023-04-25T03:57:35;7.70;1.00
3208;DHT22;1616;52.394;9.756;2023-04-25T04:00:00;7.60;1.00
3208;DHT22;1616;52.394;9.756;2023-04-25T04:02:26;7.70;1.00
3208;DHT22;1616;52.394;9.756;2023-04-25T04:04:52;7.70;1.00
3208;DHT22;1616;52.394;9.756;2023-04-25T04:07:18;7.70;1.00
3208;DHT22;1616;52.394;9.756;2023-04-25T04:09:45;7.70;1.00
3208;DHT22;1616;52.394;9.756;2023-04-25T04:12:10;7.70;1.00
3208;DHT22;1616;52.394;9.756;2023-04-25T04:14:36;7.70;1.00
3208;DHT22;1616;52.394;9.756;2023-04-25T04:17:02;7.70;1.00
3208;DHT22;1616;52.394;9.756;2023-04-25T04:19:27;7.70;1.00
3208;DHT22;1616;52.394;9.756;2023-04-25T04:21:53;7.70;1.00
3208;DHT22;1616;52.394;9.756;2023-04-25T04:24:18;7.70;1.00
3208;DHT22;1616;52.394;9.756;2023-04-25T04:26:44;7.70;1.00
3208;DHT22;1616;52.394;9.756;2023-04-25T04:29:11;7.70;1.00
3208;DHT22;1616;52.394;9.756;2023-04-25T04:31:36;7.70;1.00
3208;DHT22;1616;52.394;9.756;2023-04-25T04:34:03;7.70;1.00
3208;DHT22;1616;52.394;9.756;2023-04-25T04:36:29;8.00;1.00
3208;DHT22;1616;52.394;9.756;2023-04-25T04:38:55;8.30;1.00
3208;DHT22;1616;52.394;9.756;2023-04-25T04:41:21;8.40;1.00
3208;DHT22;1616;52.394;9.756;2023-04-25T04:43:47;8.30;1.00
3208;DHT22;1616;52.394;9.756;2023-04-25T04:46:13;8.50;1.00
3208;DHT22;1616;52.394;9.756;2023-04-25T04:48:39;8.80;1.00
3208;DHT22;1616;52.394;9.756;2023-04-25T04:51:06;9.10;1.00
3208;DHT22;1616;52.394;9.756;2023-04-25T04:53:32;9.20;1.00
3208;DHT22;1616;52.394;9.756;2023-04-25T04:55:58;9.20;1.00
3208;DHT22;1616;52.394;9.756;2023-04-25T04:58:23;9.10;1.00
3208;DHT22;1616;52.394;9.756;2023-04-25T05:00:49;9.10;1.00
3208;DHT22;1616;52.394;9.756;2023-04-25T05:03:15;9.10;1.00
3208;DHT22;1616;52.394;9.756;2023-04-25T05:05:41;9.10;1.00
3208;DHT22;1616;52.394;9.756;2023-04-25T05:08:07;9.00;1.00
3208;DHT22;1616;52.394;9.756;2023-04-25T05:10:33;9.00;1.00
3208;DHT22;1616;52.394;9.756;2023-04-25T05:12:59;9.00;1.00
3208;DHT22;1616;52.394;9.756;2023-04-25T05:15:24;9.00;1.00
3208;DHT22;1616;52.394;9.756;2023-04-25T05:17:50;9.00;1.00
3208;DHT22;1616;52.394;9.756;2023-04-25T05:20:15;9.30;1.00
3208;DHT22;1616;52.394;9.756;2023-04-25T05:22:41;9.60;1.00
3208;DHT22;1616;52.394;9.756;2023-04-25T05:25:08;9.80;1.00
3208;DHT22;1616;52.394;9.756;2023-04-25T05:27:34;10.00;1.00
3208;DHT22;1616;52.394;9.756;2023-04-25T05:30:00;10.20;1.00
3208;DHT22;1616;52.394;9.756;2023-04-25T05:32:27;10.40;1.00
3208;DHT22;1616;52.394;9.756;2023-04-25T05:34:53;10.50;1.00
3208;DHT22;1616;52.394;9.756;2023-04-25T05:37:19;10.70;1.00
3208;DHT22;1616;52.394;9.756;2023-04-25T05:39:45;10.90;1.00
3208;DHT22;1616;52.394;9.756;2023-04-25T05:42:10;11.60;1.00
3208;DHT22;1616;52.394;9.756;2023-04-25T05:44:36;12.30;1.00
3208;DHT22;1616;52.394;9.756;2023-04-25T05:47:02;12.60;1.00
3208;DHT22;1616;52.394;9.756;2023-04-25T05:49:29;12.90;1.00
3208;DHT22;1616;52.394;9.756;2023-04-25T05:51:55;12.90;1.00
3208;DHT22;1616;52.394;9.756;2023-04-25T05:54:21;12.90;1.00
3208;DHT22;1616;52.394;9.756;2023-04-25T05:56:46;12.70;1.00
3208;DHT22;1616;52.394;9.756;2023-04-25T05:59:12;12.70;1.00
3208;DHT22;1616;52.394;9.756;2023-04-25T06:01:37;12.80;1.00
3208;DHT22;1616;52.394;9.756;2023-04-25T06:04:03;12.90;1.00
3208;DHT22;1616;52.394;9.756;2023-04-25T06:06:28;13.00;1.00
3208;DHT22;1616;52.394;9.756;2023-04-25T06:08:54;12.90;1.00
3208;DHT22;1616;52.394;9.756;2023-04-25T06:11:20;12.80;1.00
3208;DHT22;1616;52.394;9.756;2023-04-25T06:13:46;12.60;1.00
3208;DHT22;1616;52.394;9.756;2023-04-25T06:16:12;12.40;1.00
3208;DHT22;1616;52.394;9.756;2023-04-25T06:18:38;12.30;1.00
3208;DHT22;1616;52.394;9.756;2023-04-25T06:21:04;12.10;1.00
3208;DHT22;1616;52.394;9.756;2023-04-25T06:23:29;12.00;1.00
3208;DHT22;1616;52.394;9.756;2023-04-25T06:25:55;11.90;1.00
3208;DHT22;1616;52.394;9.756;2023-04-25T06:28:20;11.90;1.00
3208;DHT22;1616;52.394;9.756;2023-04-25T06:30:47;12.00;1.00
3208;DHT22;1616;52.394;9.756;2023-04-25T06:33:13;12.20;1.00
3208;DHT22;1616;52.394;9.756;2023-04-25T06:35:39;12.40;1.00
3208;DHT22;1616;52.394;9.756;2023-04-25T06:38:05;12.60;1.00
3208;DHT22;1616;52.394;9.756;2023-04-25T06:40:30;12.80;1.00
3208;DHT22;1616;52.394;9.756;2023-04-25T06:42:56;13.00;1.00
3208;DHT22;1616;52.394;9.756;2023-04-25T06:45:21;13.20;1.00
3208;DHT22;1616;52.394;9.756;2023-04-25T06:47:47;13.50;1.00
3208;DHT22;1616;52.394;9.756;2023-04-25T06:50:12;13.70;1.00
3208;DHT22;1616;52.394;9.756;2023-04-25T06:52:38;13.90;1.00
3208;DHT22;1616;52.394;9.756;2023-04-25T06:55:04;14.10;1.00
3208;DHT22;1616;52.394;9.756;2023-04-25T06:57:31;14.40;1.00
3208;DHT22;1616;52.394;9.756;2023-04-25T06:59:56;14.60;1.00
3208;DHT22;1616;52.394;9.756;2023-04-25T07:02:22;14.90;1.00
3208;DHT22;1616;52.394;9.756;2023-04-25T07:04:47;15.00;1.00
3208;DHT22;1616;52.394;9.756;2023-04-25T07:07:13;15.10;1.00
3208;DHT22;1616;52.394;9.756;2023-04-25T07:09:39;15.10;1.00
3208;DHT22;1616;52.394;9.756;2023-04-25T07:12:05;15.30;1.00
3208;DHT22;1616;52.394;9.756;2023-04-25T07:14:31;15.40;1.00
3208;DHT22;1616;52.394;9.756;2023-04-25T07:16:56;15.30;1.00
3208;DHT22;1616;52.394;9.756;2023-04-25T07:19:22;15.10;1.00
3208;DHT22;1616;52.394;9.756;2023-04-25T07:21:52;14.70;1.00
3208;DHT22;1616;52.394;9.756;2023-04-25T07:24:17;14.20;1.00
3208;DHT22;1616;52.394;9.756;2023-04-25T07:26:43;13.80;1.00
3208;DHT22;1616;52.394;9.756;2023-04-25T07:29:09;13.50;1.00
3208;DHT22;1616;52.394;9.756;2023-04-25T07:31:35;13.20;1.00
3208;DHT22;1616;52.394;9.756;2023-04-25T07:34:01;12.90;1.00
3208;DHT22;1616;52.394;9.756;2023-04-25T07:36:27;12.70;1.00
3208;DHT22;1616;52.394;9.756;2023-04-25T07:38:52;12.70;1.00
3208;DHT22;1616;52.394;9.756;2023-04-25T07:41:18;12.70;1.00
3208;DHT22;1616;52.394;9.756;2023-04-25T07:43:45;12.60;1.00
3208;DHT22;1616;52.394;9.756;2023-04-25T07:46:10;12.50;1.00
3208;DHT22;1616;52.394;9.756;2023-04-25T07:48:36;12.50;1.00
3208;DHT22;1616;52.394;9.756;2023-04-25T07:51:02;12.60;1.00
3208;DHT22;1616;52.394;9.756;2023-04-25T07:53:30;12.70;1.00
3208;DHT22;1616;52.394;9.756;2023-04-25T07:55:56;12.80;1.00
3208;DHT22;1616;52.394;9.756;2023-04-25T07:58:22;12.80;1.00
3208;DHT22;1616;52.394;9.756;2023-04-25T08:00:48;12.80;1.00
3208;DHT22;1616;52.394;9.756;2023-04-25T08:03:14;12.90;1.00
3208;DHT22;1616;52.394;9.756;2023-04-25T08:05:39;12.90;1.00
3208;DHT22;1616;52.394;9.756;2023-04-25T08:08:05;13.10;1.00
3208;DHT22;1616;52.394;9.756;2023-04-25T08:10:32;13.30;1.00
3208;DHT22;1616;52.394;9.756;2023-04-25T08:12:59;13.50;1.00
3208;DHT22;1616;52.394;9.756;2023-04-25T08:15:25;13.70;1.00
3208;DHT22;1616;52.394;9.756;2023-04-25T08:17:51;14.00;1.00
3208;DHT22;1616;52.394;9.756;2023-04-25T08:20:16;14.30;1.00
3208;DHT22;1616;52.394;9.756;2023-04-25T08:22:42;14.80;1.00
3208;DHT22;1616;52.394;9.756;2023-04-25T08:25:08;15.50;1.00
3208;DHT22;1616;52.394;9.756;2023-04-25T08:27:34;16.10;1.00
3208;DHT22;1616;52.394;9.756;2023-04-25T08:30:01;16.90;1.00
3208;DHT22;1616;52.394;9.756;2023-04-25T08:32:27;17.70;1.00
3208;DHT22;1616;52.394;9.756;2023-04-25T08:34:53;18.70;1.00
3208;DHT22;1616;52.394;9.756;2023-04-25T08:37:20;19.40;1.00
3208;DHT22;1616;52.394;9.756;2023-04-25T08:39:47;19.80;1.00
3208;DHT22;1616;52.394;9.756;2023-04-25T08:42:14;20.00;1.00
3208;DHT22;1616;52.394;9.756;2023-04-25T08:44:40;20.20;1.00
3208;DHT22;1616;52.394;9.756;2023-04-25T08:47:06;20.30;1.00
3208;DHT22;1616;52.394;9.756;2023-04-25T08:49:33;20.10;1.00
3208;DHT22;1616;52.394;9.756;2023-04-25T08:52:04;19.70;1.00
3208;DHT22;1616;52.394;9.756;2023-04-25T08:54:33;19.30;1.00
3208;DHT22;1616;52.394;9.756;2023-04-25T08:57:01;18.60;1.00
3208;DHT22;1616;52.394;9.756;2023-04-25T08:59:28;18.00;1.00
3208;DHT22;1616;52.394;9.756;2023-04-25T09:01:55;17.60;1.00
3208;DHT22;1616;52.394;9.756;2023-04-25T09:04:21;17.00;1.00
3208;DHT22;1616;52.394;9.756;2023-04-25T09:06:47;16.50;1.00
3208;DHT22;1616;52.394;9.756;2023-04-25T09:09:13;16.10;1.00
3208;DHT22;1616;52.394;9.756;2023-04-25T09:11:40;15.80;1.00
3208;DHT22;1616;52.394;9.756;2023-04-25T09:14:22;15.60;1.00
3208;DHT22;1616;52.394;9.756;2023-04-25T09:16:57;15.40;1.00
3208;DHT22;1616;52.394;9.756;2023-04-25T09:21:57;16.60;1.00
3208;DHT22;1616;52.394;9.756;2023-04-25T09:27:07;18.60;1.00
3208;DHT22;1616;52.394;9.756;2023-04-25T09:29:37;19.20;1.00
3208;DHT22;1616;52.394;9.756;2023-04-25T09:32:18;20.00;1.00
3208;DHT22;1616;52.394;9.756;2023-04-25T09:37:21;21.60;1.00
3208;DHT22;1616;52.394;9.756;2023-04-25T09:39:48;22.20;1.00
3208;DHT22;1616;52.394;9.756;2023-04-25T09:42:16;22.70;1.00
3208;DHT22;1616;52.394;9.756;2023-04-25T09:44:45;23.00;1.00
3208;DHT22;1616;52.394;9.756;2023-04-25T09:47:13;23.10;1.00
3208;DHT22;1616;52.394;9.756;2023-04-25T09:49:41;23.20;1.00
3208;DHT22;1616;52.394;9.756;2023-04-25T09:52:08;23.50;1.00
3208;DHT22;1616;52.394;9.756;2023-04-25T09:54:34;23.90;1.00
3208;DHT22;1616;52.394;9.756;2023-04-25T09:57:23;24.20;1.00
3208;DHT22;1616;52.394;9.756;2023-04-25T09:59:51;24.30;1.00
3208;DHT22;1616;52.394;9.756;2023-04-25T10:02:23;24.40;1.00
3208;DHT22;1616;52.394;9.756;2023-04-25T10:04:53;24.00;1.00
3208;DHT22;1616;52.394;9.756;2023-04-25T10:07:22;23.20;1.00
3208;DHT22;1616;52.394;9.756;2023-04-25T10:09:59;22.90;1.00
3208;DHT22;1616;52.394;9.756;2023-04-25T10:12:26;22.70;1.00
3208;DHT22;1616;52.394;9.756;2023-04-25T10:14:52;22.40;1.00
3208;DHT22;1616;52.394;9.756;2023-04-25T10:17:20;21.80;1.00
3208;DHT22;1616;52.394;9.756;2023-04-25T10:19:47;20.80;1.00
3208;DHT22;1616;52.394;9.756;2023-04-25T10:22:26;19.90;1.00
3208;DHT22;1616;52.394;9.756;2023-04-25T10:24:55;18.90;1.00
3208;DHT22;1616;52.394;9.756;2023-04-25T10:27:21;18.10;1.00
3208;DHT22;1616;52.394;9.756;2023-04-25T10:30:04;17.40;1.00
3208;DHT22;1616;52.394;9.756;2023-04-25T10:32:33;16.80;1.00
3208;DHT22;1616;52.394;9.756;2023-04-25T10:35:19;16.30;1.00
3208;DHT22;1616;52.394;9.756;2023-04-25T10:40:26;15.50;1.00
3208;DHT22;1616;52.394;9.756;2023-04-25T10:42:53;15.30;1.00
3208;DHT22;1616;52.394;9.756;2023-04-25T10:45:20;15.10;1.00
3208;DHT22;1616;52.394;9.756;2023-04-25T10:47:45;14.90;1.00
3208;DHT22;1616;52.394;9.756;2023-04-25T10:50:11;14.90;1.00
3208;DHT22;1616;52.394;9.756;2023-04-25T10:52:39;14.90;1.00
3208;DHT22;1616;52.394;9.756;2023-04-25T10:55:08;14.80;1.00
3208;DHT22;1616;52.394;9.756;2023-04-25T10:57:42;14.90;1.00
3208;DHT22;1616;52.394;9.756;2023-04-25T11:02:47;15.00;1.00
3208;DHT22;1616;52.394;9.756;2023-04-25T11:05:36;15.10;1.00
3208;DHT22;1616;52.394;9.756;2023-04-25T11:08:10;15.30;1.00
3208;DHT22;1616;52.394;9.756;2023-04-25T11:10:36;15.60;1.00
3208;DHT22;1616;52.394;9.756;2023-04-25T11:13:02;15.90;1.00
3208;DHT22;1616;52.394;9.756;2023-04-25T11:15:28;16.40;1.00
3208;DHT22;1616;52.394;9.756;2023-04-25T11:17:54;17.30;1.00
3208;DHT22;1616;52.394;9.756;2023-04-25T11:20:21;18.30;1.00
3208;DHT22;1616;52.394;9.756;2023-04-25T11:22:47;19.40;1.00
3208;DHT22;1616;52.394;9.756;2023-04-25T11:25:15;20.50;1.00
3208;DHT22;1616;52.394;9.756;2023-04-25T11:27:57;21.30;1.00
3208;DHT22;1616;52.394;9.756;2023-04-25T11:30:24;21.60;1.00
3208;DHT22;1616;52.394;9.756;2023-04-25T11:32:51;21.30;1.00
3208;DHT22;1616;52.394;9.756;2023-04-25T11:35:21;20.60;1.00
3208;DHT22;1616;52.394;9.756;2023-04-25T11:37:49;19.80;1.00
3208;DHT22;1616;52.394;9.756;2023-04-25T11:40:15;18.80;1.00
3208;DHT22;1616;52.394;9.756;2023-04-25T11:42:46;17.90;1.00
3208;DHT22;1616;52.394;9.756;2023-04-25T11:45:12;16.70;1.00
3208;DHT22;1616;52.394;9.756;2023-04-25T11:47:38;15.50;1.00
3208;DHT22;1616;52.394;9.756;2023-04-25T11:50:06;14.40;1.00
3208;DHT22;1616;52.394;9.756;2023-04-25T11:52:40;13.50;1.00
3208;DHT22;1616;52.394;9.756;2023-04-25T11:55:18;12.70;1.00
3208;DHT22;1616;52.394;9.756;2023-04-25T11:57:47;12.20;1.00
3208;DHT22;1616;52.394;9.756;2023-04-25T12:00:19;11.80;1.00
3208;DHT22;1616;52.394;9.756;2023-04-25T12:02:54;11.70;1.00
3208;DHT22;1616;52.394;9.756;2023-04-25T12:05:24;11.70;1.00
3208;DHT22;1616;52.394;9.756;2023-04-25T12:07:50;11.90;1.00
3208;DHT22;1616;52.394;9.756;2023-04-25T12:10:18;12.10;1.00
3208;DHT22;1616;52.394;9.756;2023-04-25T12:12:45;12.50;1.00
3208;DHT22;1616;52.394;9.756;2023-04-25T12:15:24;13.00;1.00
3208;DHT22;1616;52.394;9.756;2023-04-25T12:17:51;13.60;1.00
3208;DHT22;1616;52.394;9.756;2023-04-25T12:20:24;14.50;1.00
3208;DHT22;1616;52.394;9.756;2023-04-25T12:22:51;15.60;1.00
3208;DHT22;1616;52.394;9.756;2023-04-25T12:25:41;16.50;1.00
3208;DHT22;1616;52.394;9.756;2023-04-25T12:28:19;17.30;1.00
3208;DHT22;1616;52.394;9.756;2023-04-25T12:31:00;17.90;1.00
3208;DHT22;1616;52.394;9.756;2023-04-25T12:33:29;18.50;1.00
3208;DHT22;1616;52.394;9.756;2023-04-25T12:35:55;18.70;1.00
3208;DHT22;1616;52.394;9.756;2023-04-25T12:38:31;18.60;1.00
3208;DHT22;1616;52.394;9.756;2023-04-25T12:41:01;18.20;1.00
3208;DHT22;1616;52.394;9.756;2023-04-25T12:43:27;17.70;1.00
3208;DHT22;1616;52.394;9.756;2023-04-25T12:45:54;17.00;1.00
3208;DHT22;1616;52.394;9.756;2023-04-25T12:48:20;16.20;1.00
3208;DHT22;1616;52.394;9.756;2023-04-25T12:50:46;15.40;1.00
3208;DHT22;1616;52.394;9.756;2023-04-25T12:53:22;14.80;1.00
3208;DHT22;1616;52.394;9.756;2023-04-25T12:55:49;14.30;1.00
3208;DHT22;1616;52.394;9.756;2023-04-25T12:58:18;14.00;1.00
3208;DHT22;1616;52.394;9.756;2023-04-25T13:00:44;13.80;1.00
3208;DHT22;1616;52.394;9.756;2023-04-25T13:03:10;13.70;1.00
3208;DHT22;1616;52.394;9.756;2023-04-25T13:05:37;13.50;1.00
3208;DHT22;1616;52.394;9.756;2023-04-25T13:08:03;13.50;1.00
3208;DHT22;1616;52.394;9.756;2023-04-25T13:10:29;13.30;1.00
3208;DHT22;1616;52.394;9.756;2023-04-25T13:12:55;13.30;1.00
3208;DHT22;1616;52.394;9.756;2023-04-25T13:15:21;13.10;1.00
3208;DHT22;1616;52.394;9.756;2023-04-25T13:17:47;12.90;1.00
3208;DHT22;1616;52.394;9.756;2023-04-25T13:20:13;12.70;1.00
3208;DHT22;1616;52.394;9.756;2023-04-25T13:22:40;12.50;1.00
3208;DHT22;1616;52.394;9.756;2023-04-25T13:25:07;12.40;1.00
3208;DHT22;1616;52.394;9.756;2023-04-25T13:27:34;12.20;1.00
3208;DHT22;1616;52.394;9.756;2023-04-25T13:30:01;12.00;1.00
3208;DHT22;1616;52.394;9.756;2023-04-25T13:32:36;11.90;1.00
3208;DHT22;1616;52.394;9.756;2023-04-25T13:35:06;11.90;1.00
3208;DHT22;1616;52.394;9.756;2023-04-25T13:37:32;11.90;1.00
3208;DHT22;1616;52.394;9.756;2023-04-25T13:40:02;12.00;1.00
3208;DHT22;1616;52.394;9.756;2023-04-25T13:42:31;12.10;1.00
3208;DHT22;1616;52.394;9.756;2023-04-25T13:44:57;12.30;1.00
3208;DHT22;1616;52.394;9.756;2023-04-25T13:47:23;12.70;1.00
3208;DHT22;1616;52.394;9.756;2023-04-25T13:49:49;13.00;1.00
3208;DHT22;1616;52.394;9.756;2023-04-25T13:52:15;13.30;1.00
3208;DHT22;1616;52.394;9.756;2023-04-25T13:54:41;13.50;1.00
3208;DHT22;1616;52.394;9.756;2023-04-25T13:57:07;13.60;1.00
3208;DHT22;1616;52.394;9.756;2023-04-25T13:59:33;13.60;1.00
3208;DHT22;1616;52.394;9.756;2023-04-25T14:02:00;13.30;1.00
3208;DHT22;1616;52.394;9.756;2023-04-25T14:04:26;12.70;1.00
3208;DHT22;1616;52.394;9.756;2023-04-25T14:06:52;12.10;1.00
3208;DHT22;1616;52.394;9.756;2023-04-25T14:09:19;11.70;1.00
3208;DHT22;1616;52.394;9.756;2023-04-25T14:11:46;11.30;1.00
3208;DHT22;1616;52.394;9.756;2023-04-25T14:14:12;11.10;1.00
3208;DHT22;1616;52.394;9.756;2023-04-25T14:16:39;11.10;1.00
3208;DHT22;1616;52.394;9.756;2023-04-25T14:19:04;11.20;1.00
3208;DHT22;1616;52.394;9.756;2023-04-25T14:21:30;11.50;1.00
3208;DHT22;1616;52.394;9.756;2023-04-25T14:23:58;11.80;1.00
3208;DHT22;1616;52.394;9.756;2023-04-25T14:26:23;12.10;1.00
3208;DHT22;1616;52.394;9.756;2023-04-25T14:28:51;12.40;1.00
3208;DHT22;1616;52.394;9.756;2023-04-25T14:31:17;12.60;1.00
3208;DHT22;1616;52.394;9.756;2023-04-25T14:33:42;12.80;1.00
3208;DHT22;1616;52.394;9.756;2023-04-25T14:36:09;13.00;1.00
3208;DHT22;1616;52.394;9.756;2023-04-25T14:38:34;13.10;1.00
3208;DHT22;1616;52.394;9.756;2023-04-25T14:41:00;13.10;1.00
3208;DHT22;1616;52.394;9.756;2023-04-25T14:43:25;13.00;1.00
3208;DHT22;1616;52.394;9.756;2023-04-25T14:45:51;13.00;1.00
3208;DHT22;1616;52.394;9.756;2023-04-25T14:48:17;12.90;1.00
3208;DHT22;1616;52.394;9.756;2023-04-25T14:50:45;12.90;1.00
3208;DHT22;1616;52.394;9.756;2023-04-25T14:53:11;13.20;1.00
3208;DHT22;1616;52.394;9.756;2023-04-25T14:55:38;12.90;1.00
3208;DHT22;1616;52.394;9.756;2023-04-25T14:58:04;12.90;1.00
3208;DHT22;1616;52.394;9.756;2023-04-25T15:00:30;12.80;1.00
3208;DHT22;1616;52.394;9.756;2023-04-25T15:02:57;12.80;1.00
3208;DHT22;1616;52.394;9.756;2023-04-25T15:05:23;12.70;1.00
3208;DHT22;1616;52.394;9.756;2023-04-25T15:07:49;12.50;1.00
3208;DHT22;1616;52.394;9.756;2023-04-25T15:10:16;12.30;1.00
3208;DHT22;1616;52.394;9.756;2023-04-25T15:12:42;12.10;1.00
3208;DHT22;1616;52.394;9.756;2023-04-25T15:15:09;11.90;1.00
3208;DHT22;1616;52.394;9.756;2023-04-25T15:17:40;11.40;1.00
3208;DHT22;1616;52.394;9.756;2023-04-25T15:20:07;10.90;1.00
3208;DHT22;1616;52.394;9.756;2023-04-25T15:22:39;10.50;1.00
3208;DHT22;1616;52.394;9.756;2023-04-25T15:25:05;10.10;1.00
3208;DHT22;1616;52.394;9.756;2023-04-25T15:27:34;9.90;1.00
3208;DHT22;1616;52.394;9.756;2023-04-25T15:30:05;9.70;1.00
3208;DHT22;1616;52.394;9.756;2023-04-25T15:32:33;9.70;1.00
3208;DHT22;1616;52.394;9.756;2023-04-25T15:34:58;9.80;1.00
3208;DHT22;1616;52.394;9.756;2023-04-25T15:37:24;9.90;1.00
3208;DHT22;1616;52.394;9.756;2023-04-25T15:40:01;10.00;1.00
3208;DHT22;1616;52.394;9.756;2023-04-25T15:42:30;10.20;1.00
3208;DHT22;1616;52.394;9.756;2023-04-25T15:44:59;10.20;1.00
3208;DHT22;1616;52.394;9.756;2023-04-25T15:47:25;10.20;1.00
3208;DHT22;1616;52.394;9.756;2023-04-25T15:49:51;10.20;1.00
3208;DHT22;1616;52.394;9.756;2023-04-25T15:52:17;10.20;1.00
3208;DHT22;1616;52.394;9.756;2023-04-25T15:54:46;10.30;1.00
3208;DHT22;1616;52.394;9.756;2023-04-25T15:57:14;10.30;1.00
3208;DHT22;1616;52.394;9.756;2023-04-25T15:59:40;10.20;1.00
3208;DHT22;1616;52.394;9.756;2023-04-25T16:02:05;10.30;1.00
3208;DHT22;1616;52.394;9.756;2023-04-25T16:04:31;10.20;1.00
3208;DHT22;1616;52.394;9.756;2023-04-25T16:07:02;10.10;1.00
3208;DHT22;1616;52.394;9.756;2023-04-25T16:09:30;9.80;1.00
3208;DHT22;1616;52.394;9.756;2023-04-25T16:11:56;9.30;1.00
3208;DHT22;1616;52.394;9.756;2023-04-25T16:14:21;9.20;1.00
3208;DHT22;1616;52.394;9.756;2023-04-25T16:16:47;9.20;1.00
3208;DHT22;1616;52.394;9.756;2023-04-25T16:19:13;9.10;1.00
3208;DHT22;1616;52.394;9.756;2023-04-25T16:21:38;9.20;1.00
3208;DHT22;1616;52.394;9.756;2023-04-25T16:24:04;9.20;1.00
3208;DHT22;1616;52.394;9.756;2023-04-25T16:26:30;9.20;1.00
3208;DHT22;1616;52.394;9.756;2023-04-25T16:28:56;9.30;1.00
3208;DHT22;1616;52.394;9.756;2023-04-25T16:31:22;9.40;1.00
3208;DHT22;1616;52.394;9.756;2023-04-25T16:33:47;9.50;1.00
3208;DHT22;1616;52.394;9.756;2023-04-25T16:36:13;9.60;1.00